createdAt,value
2019-05-06T00:00:00.916Z,2.6
2019-05-06T00:10:01.219Z,2.6
2019-05-06T00:15:01.001Z,2.8
2019-05-06T00:25:00.971Z,2.8
2019-05-06T00:30:01.051Z,2.9
2019-05-06T00:35:00.968Z,2.9
2019-05-06T00:40:00.909Z,2.8
2019-05-06T00:45:01.011Z,2.6
2019-05-06T00:50:00.945Z,2.0
2019-05-06T00:55:01.017Z,1.7
2019-05-06T01:00:00.946Z,1.8
2019-05-06T01:05:01.009Z,1.9
2019-05-06T01:10:00.957Z,1.7
2019-05-06T01:15:01.082Z,1.9
2019-05-06T01:20:00.944Z,1.9
2019-05-06T01:25:01.021Z,1.8
2019-05-06T01:30:00.955Z,1.6
2019-05-06T01:35:01.087Z,1.9
2019-05-06T01:40:01.100Z,1.7
2019-05-06T01:45:01.089Z,1.7
2019-05-06T01:55:02.486Z,1.7
2019-05-06T02:00:00.997Z,1.6
2019-05-06T02:05:01.030Z,1.4
2019-05-06T02:10:00.960Z,1.2
2019-05-06T02:15:04.383Z,0.8
2019-05-06T02:20:00.952Z,0.4
2019-05-06T02:25:01.038Z,0.0
2019-05-06T02:30:00.945Z,0.0
2019-05-06T02:35:01.013Z,0.0
2019-05-06T02:40:04.681Z,0.2
2019-05-06T02:45:04.492Z,0.4
2019-05-06T02:55:01.083Z,0.4
2019-05-06T03:00:05.656Z,0.6
2019-05-06T03:05:04.757Z,0.5
2019-05-06T03:10:04.567Z,0.5
2019-05-06T03:15:03.850Z,0.7
2019-05-06T03:20:04.848Z,0.8
2019-05-06T03:30:04.828Z,0.8
2019-05-06T03:40:03.563Z,0.5
2019-05-06T03:45:04.766Z,0.3
2019-05-06T03:50:05.166Z,0.1
2019-05-06T03:55:04.546Z,0.1
2019-05-06T04:00:05.478Z,0.1
2019-05-06T04:10:04.295Z,0.0
2019-05-06T04:15:04.657Z,0.0
2019-05-06T04:20:04.572Z,0.0
2019-05-06T04:25:04.655Z,0.2
2019-05-06T04:30:05.302Z,0.2
2019-05-06T04:35:05.046Z,0.4
2019-05-06T04:40:05.034Z,0.4
2019-05-06T04:45:05.223Z,1.1
2019-05-06T04:50:05.519Z,3.0
2019-05-06T04:55:04.259Z,3.4
2019-05-06T05:00:04.789Z,3.4
2019-05-06T05:05:04.721Z,3.6
2019-05-06T05:10:03.963Z,3.4
2019-05-06T05:15:03.627Z,1.4
2019-05-06T05:20:02.577Z,1.2
2019-05-06T05:25:03.842Z,1.4
2019-05-06T05:30:02.565Z,1.3
2019-05-06T05:35:02.478Z,0.9
2019-05-06T05:40:03.453Z,0.7
2019-05-06T05:45:03.135Z,0.6
2019-05-06T05:50:03.519Z,0.2
2019-05-06T06:00:04.420Z,0.2
2019-05-06T06:05:02.967Z,0.3
2019-05-06T06:10:03.204Z,0.1
2019-05-06T06:15:02.620Z,0.1
2019-05-06T06:20:03.071Z,0.1
2019-05-06T06:25:04.791Z,0.3
2019-05-06T06:30:02.866Z,0.4
2019-05-06T06:35:14.851Z,0.6
2019-05-06T06:40:03.017Z,0.6
2019-05-06T06:45:04.020Z,0.7
2019-05-06T06:50:03.270Z,0.6
2019-05-06T06:55:03.117Z,0.5
2019-05-06T07:00:04.463Z,0.5
2019-05-06T07:05:02.741Z,0.7
2019-05-06T07:10:03.077Z,0.8
2019-05-06T07:15:02.879Z,0.8
2019-05-06T07:20:03.306Z,0.8
2019-05-06T07:25:04.158Z,0.6
2019-05-06T07:35:05.903Z,0.6
2019-05-06T07:40:03.382Z,0.7
2019-05-06T07:50:02.889Z,0.8
2019-05-06T08:00:03.910Z,0.8
2019-05-06T08:05:03.000Z,0.8
2019-05-06T08:20:02.959Z,1.0
2019-05-06T08:40:03.696Z,1.0
2019-05-06T08:45:02.707Z,1.0
2019-05-06T08:50:02.836Z,1.0
2019-05-06T08:55:05.171Z,0.8
2019-05-06T09:00:03.834Z,0.9
2019-05-06T09:05:03.337Z,0.9
2019-05-06T09:10:03.062Z,0.9
2019-05-06T09:15:03.960Z,0.7
2019-05-06T09:20:03.057Z,0.8
2019-05-06T09:25:02.888Z,0.9
2019-05-06T09:30:03.433Z,0.9
2019-05-06T09:35:03.385Z,0.9
2019-05-06T09:40:03.366Z,1.1
2019-05-06T09:45:02.744Z,1.2
2019-05-06T09:50:03.272Z,0.9
2019-05-06T09:55:03.723Z,0.8
2019-05-06T10:00:05.203Z,0.8
2019-05-06T10:05:04.030Z,0.6
2019-05-06T10:15:03.724Z,0.7
2019-05-06T10:20:03.413Z,0.8
2019-05-06T10:25:04.170Z,0.6
2019-05-06T10:30:03.756Z,0.6
2019-05-06T10:35:03.220Z,0.5
2019-05-06T10:40:03.741Z,0.3
2019-05-06T10:45:02.283Z,0.1
2019-05-06T10:50:02.598Z,0.1
2019-05-06T10:55:03.761Z,0.2
2019-05-06T11:00:01.134Z,0.1
2019-05-06T11:10:03.243Z,0.3
2019-05-06T11:15:03.950Z,0.3
2019-05-06T11:20:13.408Z,0.2
2019-05-06T11:25:03.614Z,0.2
2019-05-06T11:30:02.727Z,0.0
2019-05-06T11:35:04.241Z,0.0
2019-05-06T11:40:01.303Z,0.0
2019-05-06T11:45:03.556Z,0.0
2019-05-06T11:50:05.458Z,0.0
2019-05-06T11:55:02.634Z,0.4
2019-05-06T12:00:03.501Z,0.4
2019-05-06T12:15:07.315Z,0.4
2019-05-06T12:20:03.359Z,0.0
2019-05-06T12:25:04.855Z,0.0
2019-05-06T12:30:05.817Z,0.0
2019-05-06T12:35:03.905Z,0.0
2019-05-06T12:40:03.848Z,0.0
2019-05-06T12:45:04.182Z,0.0
2019-05-06T12:50:03.241Z,0.0
2019-05-06T13:00:04.000Z,0.0
2019-05-06T13:05:04.496Z,0.0
2019-05-06T13:15:08.501Z,0.0
2019-05-06T13:20:01.181Z,0.0
2019-05-06T13:25:04.434Z,0.0
2019-05-06T13:30:02.911Z,0.0
2019-05-06T13:35:03.250Z,0.0
2019-05-06T13:40:02.841Z,0.1
2019-05-06T13:45:03.316Z,0.2
2019-05-06T13:55:03.041Z,0.4
2019-05-06T14:00:03.606Z,0.6
2019-05-06T14:05:03.409Z,0.6
2019-05-06T14:15:09.567Z,0.5
2019-05-06T14:20:03.097Z,0.4
2019-05-06T14:25:01.297Z,0.2
2019-05-06T14:30:05.231Z,0.0
2019-05-06T14:35:01.239Z,0.1
2019-05-06T14:40:01.174Z,0.2
2019-05-06T14:45:01.499Z,0.2
2019-05-06T14:55:01.341Z,0.2
2019-05-06T15:00:01.226Z,0.1
2019-05-06T15:05:03.450Z,0.2
2019-05-06T15:15:03.935Z,0.2
2019-05-06T15:25:02.749Z,0.2
2019-05-06T15:30:03.785Z,0.0
2019-05-06T15:35:03.000Z,0.0
2019-05-06T15:45:06.268Z,0.2
2019-05-06T15:50:01.188Z,0.2
2019-05-06T15:55:03.669Z,0.2
2019-05-06T16:00:02.989Z,0.2
2019-05-06T16:05:22.143Z,0.2
2019-05-06T16:10:03.479Z,0.2
2019-05-06T16:15:03.013Z,0.4
2019-05-06T16:20:03.194Z,0.4
2019-05-06T16:25:03.060Z,0.4
2019-05-06T16:30:03.833Z,0.2
2019-05-06T16:35:01.327Z,0.4
2019-05-06T16:40:03.200Z,0.4
2019-05-06T16:45:07.720Z,0.5
2019-05-06T16:50:01.209Z,0.7
2019-05-06T16:55:03.517Z,0.9
2019-05-06T17:00:03.386Z,0.7
2019-05-06T17:05:03.735Z,0.6
2019-05-06T17:10:03.825Z,0.7
2019-05-06T17:15:03.975Z,0.9
2019-05-06T17:25:02.755Z,0.8
2019-05-06T17:30:01.280Z,0.9
2019-05-06T17:35:03.074Z,0.7
2019-05-06T17:40:14.288Z,0.5
2019-05-06T17:45:01.341Z,0.7
2019-05-06T17:50:03.376Z,0.8
2019-05-06T17:55:03.284Z,0.6
2019-05-06T18:00:03.532Z,0.8
2019-05-06T18:05:03.266Z,0.6
2019-05-06T18:10:03.471Z,0.6
2019-05-06T18:15:03.119Z,0.4
2019-05-06T18:25:02.712Z,0.2
2019-05-06T18:35:03.132Z,0.0
2019-05-06T18:40:01.235Z,0.0
2019-05-06T18:45:03.160Z,0.0
2019-05-06T18:50:02.777Z,0.0
2019-05-06T18:55:01.321Z,0.0
2019-05-06T19:00:03.544Z,0.2
2019-05-06T19:10:03.720Z,0.4
2019-05-06T19:15:03.728Z,0.4
2019-05-06T19:25:03.077Z,0.2
2019-05-06T19:30:02.919Z,0.2
2019-05-06T19:45:03.000Z,0.0
2019-05-06T19:50:03.190Z,0.0
2019-05-06T19:55:03.503Z,0.0
2019-05-06T20:00:03.697Z,0.0
2019-05-06T20:05:03.572Z,0.0
2019-05-06T20:10:03.579Z,0.0
2019-05-06T20:15:02.612Z,0.0
2019-05-06T20:20:03.322Z,0.0
2019-05-06T20:25:03.446Z,0.0
2019-05-06T20:30:03.712Z,0.0
2019-05-06T20:35:01.327Z,0.0
2019-05-06T20:40:02.843Z,0.2
2019-05-06T20:45:02.548Z,0.2
2019-05-06T20:50:02.752Z,0.4
2019-05-06T21:00:07.479Z,0.4
2019-05-06T21:05:02.557Z,0.2
2019-05-06T21:10:02.620Z,0.2
2019-05-06T21:15:02.756Z,0.0
2019-05-06T21:20:03.203Z,0.0
2019-05-06T21:25:02.757Z,0.2
2019-05-06T21:30:02.943Z,0.2
2019-05-06T21:35:02.605Z,0.2
2019-05-06T21:40:03.054Z,0.2
2019-05-06T21:45:03.633Z,0.2
2019-05-06T21:50:01.317Z,0.0
2019-05-06T22:05:03.114Z,0.0
2019-05-06T22:10:01.330Z,0.0
2019-05-06T22:20:03.565Z,0.0
2019-05-06T22:25:03.220Z,0.0
2019-05-06T22:30:03.614Z,0.0
2019-05-06T22:35:05.038Z,0.0
2019-05-06T22:40:02.647Z,0.0
2019-05-06T22:45:02.370Z,0.0
2019-05-06T22:50:02.591Z,0.0
2019-05-06T22:55:04.264Z,0.0
2019-05-06T23:00:03.903Z,0.0
2019-05-06T23:05:04.910Z,0.0
2019-05-06T23:10:01.312Z,0.0
2019-05-06T23:15:03.049Z,0.0
2019-05-06T23:30:03.444Z,0.1
2019-05-06T23:35:03.667Z,0.1
2019-05-06T23:45:02.958Z,0.2
